Latest Coastal Weather Observations for Kowanyama

IDQ60701

Issued at 3:15 am EST Thursday 31 July 2014 (issued every 10 minutes, with the page automatically refreshed every 10 minutes)

About coastal observations | Map of coastal stations | Coastal observations for QLD | Marine services | Other Formats
Station Details ID: 029038 Name: KOWANYAMA AIRPORT Lat: -15.48 Lon: 141.75 Height: 9.6 m
Data from the previous 72 hours. | See also: Recent months at Kowanyama
Date/Time
EST
Temp

°C
Wind Pressure Rain
since 9am
mm
Weather Cloud Vis
km
Sea
Height
m
Swell
Dir
 
Speed
knots
Gust
knots
hPa Trend Height
m
Period
s
Dir
31/03:00am 19.9 NE 3 4 1015.9 - 0.0 - - - - - - -
31/02:30am 19.7 CALM 0 4 1016.1 - 0.0 - - - - - - -
31/02:00am 20.1 CALM 0 0 1016.3 - 0.0 - - - - - - -
31/01:30am 20.4 CALM 0 0 1016.4 - 0.0 - Partly cloudy - - - - -
31/01:00am 21.0 NNE 1 4 1016.6 - 0.0 - Cloudy - - - - -
31/12:30am 21.0 NE 3 4 1016.6 - 0.0 - Cloudy - - - - -
31/12:00am 20.8 E 3 4 1016.5 - 0.0 - - - - - - -
 
Date/Time
EST
Temp

°C
Wind Pressure Rain
since 9am
mm
Weather Cloud Vis
km
Sea
Height
m
Swell
Dir
 
Speed
knots
Gust
knots
hPa Trend Height
m
Period
s
Dir
30/11:30pm 20.9 E 4 6 1016.5 - 0.0 - - - - - - -
30/11:00pm 21.3 S 4 6 1016.2 - 0.0 - - - - - - -
30/10:30pm 21.4 S 2 4 1016.0 - 0.0 - - - - - - -
30/10:00pm 21.6 SSW 5 6 1015.9 - 0.0 - - - - - - -
30/09:30pm 21.8 SSW 4 5 1015.7 - 0.0 - - - - - - -
30/09:00pm 22.1 SW 4 6 1015.4 - 0.0 - - - - - - -
30/08:30pm 22.7 WSW 4 5 1015.3 - 0.0 - - - - - - -
30/08:00pm 23.5 WSW 5 6 1015.0 - 0.0 - - - - - - -
30/07:30pm 24.1 W 5 7 1014.7 - 0.0 - - - - - - -
30/07:00pm 25.0 WSW 6 8 1014.2 - 0.0 - - - - - - -
30/06:30pm 26.7 SSW 5 8 1013.9 - 0.0 - - - - - - -
30/06:00pm 29.7 ESE 5 8 1013.5 - 0.0 - - - - - - -
30/05:30pm 30.4 ESE 8 11 1013.3 - 0.0 - - - - - - -
30/05:00pm 30.9 ESE 7 10 1013.1 - 0.0 - - - - - - -
30/04:30pm 31.2 ESE 7 9 1013.0 - 0.0 - - - - - - -
30/04:00pm 31.4 E 6 13 1012.8 - 0.0 - - - - - - -
30/03:30pm 31.7 E 8 13 1012.9 - 0.0 - - - - - - -
30/03:00pm 31.2 ESE 8 14 1013.0 - 0.0 - - - - - - -
30/02:30pm 31.0 E 7 15 1013.5 - 0.0 - - - - - - -
30/02:00pm 30.7 E 7 13 1014.0 - 0.0 - - - - - - -
30/01:30pm 30.3 E 8 14 1014.7 - 0.0 - - - - - - -
30/01:00pm 29.9 ESE 7 12 1015.0 - 0.0 - - - - - - -
30/12:30pm 29.2 ESE 9 14 1015.5 - 0.0 - - - - - - -
30/12:00pm 28.1 ESE 10 13 1016.1 - 0.0 - - - - - - -
30/11:30am 28.2 ENE 8 12 1016.8 - 0.0 - - - - - - -
30/11:00am 27.1 E 8 14 1017.4 - 0.0 - - - - - - -
30/10:30am 26.2 E 9 12 1017.9 - 0.0 - - - - - - -
30/10:00am 24.9 ENE 10 15 1018.2 - 0.0 - - - - - - -
30/09:30am 24.0 ENE 9 14 1018.3 - 0.0 - - - - - - -
30/09:00am 23.3 ENE 6 10 1018.2 - 0.0 - - - - - - -
30/08:30am 21.8 E 5 7 1018.0 - 0.0 - - - - - - -
30/08:00am 20.0 E 4 5 1017.8 - 0.0 - - - - - - -
30/07:30am 17.1 CALM 0 0 1017.6 - 0.0 - - - - - - -
30/07:00am 16.9 CALM 0 0 1017.4 - 0.0 - - - - - - -
30/06:30am 17.6 E 3 3 1017.2 - 0.0 - - - - - - -
30/06:00am 18.2 E 4 5 1016.8 - 0.0 - - - - - - -
30/05:30am 17.3 CALM 0 0 1016.8 - 0.0 - - - - - - -
30/05:00am 17.7 CALM 0 1 1016.7 - 0.0 - - - - - - -
30/04:30am 18.3 E 2 3 1016.6 - 0.0 - - - - - - -
30/04:00am 18.7 CALM 0 3 1016.4 - 0.0 - - - - - - -
30/03:30am 19.1 CALM 0 0 1016.4 - 0.0 - - - - - - -
30/03:00am 19.9 NNE 2 3 1016.4 - 0.0 - - - - - - -
30/02:30am 20.5 NE 4 5 1016.6 - 0.0 - - - - - - -
30/02:00am 20.6 NNE 5 7 1016.8 - 0.0 - - - - - - -
30/01:30am 19.9 NNE 1 4 1016.9 - 0.0 - - - - - - -
30/01:00am 20.3 E 4 5 1017.0 - 0.0 - - - - - - -
30/12:30am 20.0 ENE 4 5 1017.1 - 0.0 - - - - - - -
30/12:00am 20.6 ESE 4 6 1017.0 - 0.0 - - - - - - -
 
Date/Time
EST
Temp

°C
Wind Pressure Rain
since 9am
mm
Weather Cloud Vis
km
Sea
Height
m
Swell
Dir
 
Speed
knots
Gust
knots
hPa Trend Height
m
Period
s
Dir
29/11:30pm 20.7 SE 3 4 1017.1 - 0.0 - - - - - - -
29/11:00pm 20.5 S 2 3 1017.1 - 0.0 - - - - - - -
29/10:30pm 20.9 SSW 1 3 1017.0 - 0.0 - - - - - - -
29/10:00pm 21.2 SSW 3 4 1016.8 - 0.0 - - - - - - -
29/09:30pm 21.8 SW 3 5 1016.8 - 0.0 - - - - - - -
29/09:00pm 22.2 SW 3 4 1016.6 - 0.0 - - - - - - -
29/08:30pm 22.9 SW 4 5 1016.5 - 0.0 - - - - - - -
29/08:00pm 23.4 W 4 7 1016.3 - 0.0 - - - - - - -
29/07:30pm 24.3 SW 6 9 1015.9 - 0.0 - - - - - - -
29/07:00pm 25.6 WSW 7 9 1015.4 - 0.0 - - - - - - -
29/06:30pm 28.2 ESE 4 6 1014.8 - 0.0 - - - - - - -
29/06:00pm 29.7 ESE 6 8 1014.4 - 0.0 - - - - - - -
29/05:30pm 30.4 ESE 7 9 1014.2 - 0.0 - - - - - - -
29/05:00pm 31.0 ESE 7 10 1013.9 - 0.0 - - - - - - -
29/04:30pm 31.1 E 7 15 1013.8 - 0.0 - - - - - - -
29/04:00pm 31.4 ESE 9 15 1013.8 - 0.0 - - - - - - -
29/03:30pm 31.5 SE 11 15 1013.9 - 0.0 - - - - - - -
29/03:00pm 31.3 SSE 11 15 1014.1 - 0.0 - - - - - - -
29/02:30pm 30.9 ESE 9 13 1014.7 - 0.0 - - - - - - -
29/02:00pm 30.8 ESE 10 16 1015.3 - 0.0 - - - - - - -
29/01:30pm 30.2 ESE 10 16 1015.7 - 0.0 - - - - - - -
29/01:00pm 29.5 SE 11 17 1016.2 - 0.0 - - - - - - -
29/12:30pm 29.8 E 8 14 1016.9 - 0.0 - - - - - - -
29/12:00pm 28.4 E 10 15 1017.5 - 0.0 - - - - - - -
29/11:30am 28.0 E 8 11 1017.9 - 0.0 - - - - - - -
29/11:00am 27.2 E 9 13 1018.4 - 0.0 - - - - - - -
29/10:30am 26.2 E 10 15 1018.6 - 0.0 - - - - - - -
29/10:00am 25.5 ESE 10 12 1018.9 - 0.0 - - - - - - -
29/09:30am 23.8 E 10 15 1018.9 - 0.0 - - - - - - -
29/09:00am 23.1 E 7 12 1018.8 - 0.0 - - - - - - -
29/08:30am 21.2 ESE 6 8 1018.8 - 0.0 - - - - - - -
29/08:00am 19.1 SE 5 6 1018.7 - 0.0 - - - - - - -
29/07:30am 16.8 SE 1 4 1018.5 - 0.0 - - - - - - -
29/07:00am 16.0 CALM 0 0 1018.1 - 0.0 - - - - - - -
29/06:30am 16.5 CALM 0 0 1017.8 - 0.0 - - - - - - -
29/06:00am 16.3 SE 3 4 1017.5 - 0.0 - - - - - - -
29/05:30am 16.4 CALM 0 0 1017.2 - 0.0 - - - - - - -
29/05:00am 16.7 CALM 0 0 1017.0 - 0.0 - - - - - - -
29/04:30am 17.0 CALM 0 0 1016.9 - 0.0 - - - - - - -
29/04:00am 17.4 CALM 0 0 1016.9 - 0.0 - - - - - - -
29/03:30am 17.4 CALM 0 0 1017.0 - 0.0 - - - - - - -
29/03:00am 17.5 CALM 0 4 1016.9 - 0.0 - - - - - - -
29/02:30am 17.8 CALM 0 0 1016.9 - 0.0 - - - - - - -
29/02:00am 18.3 CALM 0 0 1017.1 - 0.0 - - - - - - -
29/01:30am 18.7 CALM 0 0 1017.2 - 0.0 - - - - - - -
29/01:00am 19.9 ESE 1 3 1017.4 - 0.0 - - - - - - -
29/12:30am 19.1 SSE 3 4 1017.5 - 0.0 - - - - - - -
29/12:00am 19.6 SE 3 4 1017.4 - 0.0 - - - - - - -
 
Date/Time
EST
Temp

°C
Wind Pressure Rain
since 9am
mm
Weather Cloud Vis
km
Sea
Height
m
Swell
Dir
 
Speed
knots
Gust
knots
hPa Trend Height
m
Period
s
Dir
28/11:30pm 19.9 CALM 0 0 1017.5 - 0.0 - - - - - - -
28/11:00pm 20.8 SSE 2 3 1017.6 - 0.0 - - - - - - -
28/10:30pm 20.9 SE 3 4 1017.5 - 0.0 - - - - - - -
28/10:00pm 21.5 SE 2 4 1017.5 - 0.0 - - - - - - -
28/09:30pm 21.8 SSW 5 6 1017.2 - 0.0 - - - - - - -
28/09:00pm 22.2 SSW 5 6 1016.9 - 0.0 - - - - - - -
28/08:30pm 22.8 SSW 5 7 1016.8 - 0.0 - Partly cloudy - - - - -
28/08:00pm 23.6 SW 5 6 1016.4 - 0.0 - Cloudy - - - - -
28/07:30pm 24.7 NW 2 5 1016.1 - 0.0 - Partly cloudy - - - - -
28/07:00pm 25.5 ENE 1 3 1015.4 - 0.0 - - - - - - -
28/06:30pm 28.1 E 4 5 1015.0 - 0.0 - - - - - - -
28/06:00pm 29.3 E 6 9 1014.5 - 0.0 - - - - - - -
28/05:30pm 30.0 ESE 7 10 1014.4 - 0.0 - - - - - - -
28/05:00pm 30.7 E 7 11 1014.3 - 0.0 - - - - - - -
28/04:30pm 30.8 ESE 9 14 1014.0 - 0.0 - - - - - - -
28/04:00pm 31.0 E 6 10 1013.9 - 0.0 - - - - - - -
28/03:30pm 31.2 E 8 13 1014.0 - 0.0 - - - - - - -
28/03:00pm 30.7 E 8 15 1014.2 - 0.0 - - - - - - -
28/02:30pm 30.7 E 11 16 1014.6 - 0.0 - - - - - - -
28/02:00pm 29.9 ENE 11 14 1015.1 - 0.0 - - - - - - -
28/01:30pm 29.9 ESE 12 17 1015.5 - 0.0 - - - - - - -
28/01:00pm 29.7 E 10 15 1015.9 - 0.0 - - - - - - -
28/12:30pm 29.0 E 9 15 1016.4 - 0.0 - - - - - - -
28/12:00pm 29.0 E 9 13 1016.7 - 0.0 - - - - - - -
28/11:30am 28.5 E 9 13 1017.4 - 0.0 - - - - - - -
28/11:00am 27.5 E 10 16 1017.9 - 0.0 - - - - - - -
28/10:30am 27.0 ENE 10 16 1018.2 - 0.0 - - - - - - -
28/10:00am 25.4 ESE 9 13 1018.5 - 0.0 - - - - - - -
28/09:30am 24.6 E 8 14 1018.7 - 0.0 - - - - - - -
28/09:00am 23.0 E 8 13 1018.5 - 0.0 - - - - - - -
28/08:30am 22.0 ESE 8 13 1018.4 - 0.0 - - - - - - -
28/08:00am 20.6 ESE 5 7 1018.2 - 0.0 - - - - - - -
28/07:30am 19.5 ESE 4 6 1017.8 - 0.0 - - - - - - -
28/07:00am 19.1 ESE 3 5 1017.5 - 0.0 - - - - - - -
28/06:30am 19.6 E 4 5 1017.2 - 0.0 - - - - - - -
28/06:00am 19.9 E 4 6 1016.8 - 0.0 - - - - - - -
28/05:30am 20.4 E 4 6 1016.7 - 0.0 - - - - - - -
28/05:00am 20.9 ENE 5 8 1016.6 - 0.0 - - - - - - -
28/04:30am 21.2 ENE 6 10 1016.7 - 0.0 - - - - - - -
28/04:00am 21.5 E 5 8 1016.5 - 0.0 - - - - - - -
28/03:30am 22.0 E 5 8 1016.5 - 0.0 - - - - - - -

Other Formats:

Comma delimited format used in spreadsheet applications
http://www.bom.gov.au/fwo/IDQ60701/IDQ60701.94268.axf

JavaScript Object Notation format (JSON) in row-major order
http://www.bom.gov.au/fwo/IDQ60701/IDQ60701.94268.json